This is the latest recevied weather packets stored in our database for station/object F4WDE-10. If no packets are shown the sender has not sent any weather packets the latest 1 day(s).
| Time | Temp. | Humidity | Pressure | Rain* | Wind** | Luminosity | Snow |
|---|---|---|---|---|---|---|---|
| 1778081304 | 26.11° C | 44% | 954 hPa | - | - | - | - |
| 1778077700 | 20.56° C | 59% | 954 hPa | - | - | - | - |
| 1778076799 | 20.56° C | 62% | 955 hPa | - | - | - | - |
| 1778075898 | 20° C | 67% | 955 hPa | - | - | - | - |
| 1778073194 | 19.44° C | 68% | 955 hPa | - | - | - | - |
| 1778072293 | 20° C | 71% | 955 hPa | - | - | - | - |
| 1778071392 | 20° C | 68% | 955 hPa | - | - | - | - |
| 1778070491 | 20° C | 68% | 955 hPa | - | - | - | - |
| 1778069590 | 19.44° C | 68% | 955 hPa | - | - | - | - |
| 1778068689 | 18.89° C | 71% | 955 hPa | - | - | - | - |
| 1778067788 | 18.89° C | 73% | 955 hPa | - | - | - | - |
| 1778061480 | 16.67° C | 86% | 955 hPa | - | - | - | - |
| 1778059678 | 16.67° C | 82% | 955 hPa | - | - | - | - |
| 1778058776 | 17.78° C | 74% | 955 hPa | - | - | - | - |
| 1778057875 | 18.33° C | 68% | 955 hPa | - | - | - | - |
| 1778056974 | 17.22° C | 73% | 955 hPa | - | - | - | - |
| 1778056073 | 17.22° C | 75% | 955 hPa | - | - | - | - |
| 1778055172 | 17.78° C | 75% | 955 hPa | - | - | - | - |
| 1778054271 | 17.78° C | 74% | 955 hPa | - | - | - | - |
| 1778053370 | 17.22° C | 75% | 955 hPa | - | - | - | - |
| 1778047062 | 15.56° C | 81% | 954 hPa | - | - | - | - |
| 1778045260 | 15.56° C | 84% | 954 hPa | - | - | - | - |
| 1778044359 | 13.89° C | 91% | 954 hPa | - | - | - | - |
| 1778043458 | 14.44° C | 89% | 954 hPa | - | - | - | - |
| 1778042556 | 14.44° C | 88% | 954 hPa | - | - | - | - |
* Rain since midnight (hover to see other rain measurements)
** Current wind speed in m/s (hover to see current wind gust speed)